BGA191A LEZL-LFBO
Flight info
| Callsign | BGA191A |
|---|---|
| Flight time | 1h 30m |
| Altitude | 34000 |
| Route | HIJ M30 PARKA Z165 SOTUK Z230 TLD N858 SIE T430 BASIM DCT GASMO T430 LPA T429 TOPTU |
| Aircraft | A337/H-SDE3GHIJ2J3J5M1RVWXY/LB2D1 |
Departure
| Time | 2026-04-27 12:50 |
|---|---|
| Airport | Seville Airport (LEZL) |
Arrival
| Time | 2026-04-27 14:20 |
|---|---|
| Airport | Toulouse-Blagnac Airport (LFBO) |
| Time | Latitude | Longitude | Altitude | Speed | Heading |
|---|---|---|---|---|---|
| 2026-04-27 12:33 | 37.41343 | -5.88511 | 105 ft | 0 kts | 359° |
| 2026-04-27 12:38 | 37.41341 | -5.88511 | 105 ft | 2 kts | 359° |
| 2026-04-27 12:38 | 37.41324 | -5.88510 | 103 ft | 4 kts | 350° |
| 2026-04-27 12:38 | 37.41299 | -5.88499 | 102 ft | 4 kts | 322° |
| 2026-04-27 12:39 | 37.41285 | -5.88476 | 103 ft | 3 kts | 272° |
| 2026-04-27 12:39 | 37.41285 | -5.88473 | 103 ft | 5 kts | 269° |
| 2026-04-27 12:41 | 37.41285 | -5.88476 | 103 ft | 2 kts | 269° |
| 2026-04-27 12:42 | 37.41285 | -5.88511 | 103 ft | 6 kts | 269° |
| 2026-04-27 12:42 | 37.41284 | -5.88587 | 103 ft | 11 kts | 269° |
| 2026-04-27 12:42 | 37.41283 | -5.88706 | 101 ft | 16 kts | 269° |
| 2026-04-27 12:42 | 37.41281 | -5.88852 | 98 ft | 10 kts | 273° |
| 2026-04-27 12:43 | 37.41326 | -5.88893 | 100 ft | 8 kts | 358° |
| 2026-04-27 12:43 | 37.41380 | -5.88883 | 101 ft | 7 kts | 10° |
| 2026-04-27 12:43 | 37.41428 | -5.88870 | 104 ft | 7 kts | 11° |
| 2026-04-27 12:43 | 37.41472 | -5.88860 | 104 ft | 6 kts | 10° |
| 2026-04-27 12:44 | 37.41523 | -5.88849 | 105 ft | 9 kts | 10° |
| 2026-04-27 12:44 | 37.41594 | -5.88834 | 104 ft | 12 kts | 10° |
| 2026-04-27 12:44 | 37.41683 | -5.88813 | 105 ft | 14 kts | 11° |
| 2026-04-27 12:44 | 37.41788 | -5.88788 | 107 ft | 16 kts | 11° |
| 2026-04-27 12:45 | 37.41908 | -5.88761 | 105 ft | 19 kts | 10° |
| 2026-04-27 12:45 | 37.41982 | -5.88792 | 106 ft | 11 kts | 289° |
| 2026-04-27 12:45 | 37.41984 | -5.88909 | 103 ft | 15 kts | 270° |
| 2026-04-27 12:45 | 37.41983 | -5.89057 | 102 ft | 19 kts | 269° |
| 2026-04-27 12:46 | 37.41983 | -5.89237 | 102 ft | 22 kts | 270° |
| 2026-04-27 12:46 | 37.41981 | -5.89446 | 102 ft | 25 kts | 269° |
| 2026-04-27 12:46 | 37.41980 | -5.89683 | 101 ft | 29 kts | 269° |
| 2026-04-27 12:46 | 37.41980 | -5.89945 | 101 ft | 28 kts | 270° |
| 2026-04-27 12:47 | 37.41980 | -5.90192 | 99 ft | 26 kts | 270° |
| 2026-04-27 12:47 | 37.41979 | -5.90419 | 98 ft | 24 kts | 270° |
| 2026-04-27 12:47 | 37.41978 | -5.90642 | 97 ft | 27 kts | 269° |
| 2026-04-27 12:47 | 37.41976 | -5.90880 | 95 ft | 12 kts | 269° |
| 2026-04-27 12:48 | 37.41976 | -5.90985 | 95 ft | 14 kts | 269° |
| 2026-04-27 12:48 | 37.41975 | -5.91124 | 94 ft | 18 kts | 270° |
| 2026-04-27 12:48 | 37.41962 | -5.91275 | 96 ft | 14 kts | 240° |
| 2026-04-27 12:48 | 37.41886 | -5.91305 | 96 ft | 11 kts | 160° |
| 2026-04-27 12:49 | 37.41834 | -5.91231 | 95 ft | 12 kts | 120° |
| 2026-04-27 12:49 | 37.41790 | -5.91139 | 97 ft | 11 kts | 104° |
| 2026-04-27 12:49 | 37.41789 | -5.91097 | 97 ft | 0 kts | 90° |
| 2026-04-27 12:49 | 37.41788 | -5.90917 | 99 ft | 56 kts | 90° |
| 2026-04-27 12:50 | 37.41793 | -5.90101 | 102 ft | 128 kts | 90° |
| 2026-04-27 12:50 | 37.41807 | -5.88774 | 398 ft | 166 kts | 89° |
| 2026-04-27 12:50 | 37.41852 | -5.87218 | 1054 ft | 190 kts | 84° |
| 2026-04-27 12:50 | 37.42348 | -5.85575 | 1677 ft | 216 kts | 57° |
| 2026-04-27 12:51 | 37.43534 | -5.84257 | 2342 ft | 242 kts | 33° |
| 2026-04-27 12:51 | 37.45176 | -5.83482 | 2962 ft | 262 kts | 17° |
| 2026-04-27 12:51 | 37.46997 | -5.83133 | 3879 ft | 269 kts | 6° |
| 2026-04-27 12:51 | 37.48907 | -5.82927 | 4821 ft | 274 kts | 7° |
| 2026-04-27 12:52 | 37.50791 | -5.82520 | 5769 ft | 277 kts | 15° |
| 2026-04-27 12:52 | 37.52627 | -5.81814 | 6788 ft | 277 kts | 22° |
| 2026-04-27 12:52 | 37.54417 | -5.80851 | 7687 ft | 282 kts | 27° |
| 2026-04-27 12:52 | 37.56180 | -5.79698 | 8567 ft | 289 kts | 30° |
| 2026-04-27 12:53 | 37.59698 | -5.77100 | 10326 ft | 300 kts | 33° |
| 2026-04-27 12:53 | 37.61548 | -5.75699 | 10763 ft | 320 kts | 33° |
| 2026-04-27 12:53 | 37.63515 | -5.74219 | 11252 ft | 336 kts | 32° |
| 2026-04-27 12:54 | 37.65549 | -5.72716 | 11938 ft | 343 kts | 32° |
| 2026-04-27 12:54 | 37.67640 | -5.71185 | 12572 ft | 351 kts | 31° |
| 2026-04-27 12:54 | 37.69767 | -5.69638 | 13389 ft | 354 kts | 31° |
| 2026-04-27 12:54 | 37.71912 | -5.68084 | 14118 ft | 358 kts | 31° |
| 2026-04-27 12:55 | 37.74109 | -5.66492 | 14812 ft | 361 kts | 31° |
| 2026-04-27 12:55 | 37.76275 | -5.64920 | 15489 ft | 365 kts | 31° |
| 2026-04-27 12:55 | 37.78486 | -5.63312 | 16166 ft | 368 kts | 31° |
| 2026-04-27 12:55 | 37.80711 | -5.61691 | 16868 ft | 371 kts | 31° |
| 2026-04-27 12:56 | 37.82990 | -5.60029 | 17521 ft | 374 kts | 31° |
| 2026-04-27 12:56 | 37.85220 | -5.58401 | 18239 ft | 376 kts | 31° |
| 2026-04-27 12:56 | 37.87495 | -5.56739 | 18787 ft | 380 kts | 31° |
| 2026-04-27 12:56 | 37.89790 | -5.55060 | 19339 ft | 383 kts | 31° |
| 2026-04-27 12:57 | 37.92111 | -5.53362 | 19843 ft | 387 kts | 30° |
| 2026-04-27 12:57 | 37.94449 | -5.51651 | 20408 ft | 389 kts | 30° |
| 2026-04-27 12:57 | 37.96798 | -5.49928 | 20894 ft | 393 kts | 30° |
| 2026-04-27 12:57 | 37.99175 | -5.48185 | 21439 ft | 395 kts | 30° |
| 2026-04-27 12:58 | 38.01567 | -5.46428 | 21891 ft | 399 kts | 30° |
| 2026-04-27 12:58 | 38.03976 | -5.44658 | 22419 ft | 401 kts | 30° |
| 2026-04-27 12:58 | 38.06404 | -5.42874 | 22887 ft | 404 kts | 30° |
| 2026-04-27 12:58 | 38.08845 | -5.41079 | 23371 ft | 407 kts | 30° |
| 2026-04-27 12:59 | 38.11304 | -5.39269 | 23791 ft | 410 kts | 30° |
| 2026-04-27 12:59 | 38.13775 | -5.37449 | 24165 ft | 412 kts | 30° |
| 2026-04-27 12:59 | 38.16258 | -5.35617 | 24617 ft | 412 kts | 30° |
| 2026-04-27 12:59 | 38.18737 | -5.33788 | 25123 ft | 411 kts | 30° |
| 2026-04-27 13:00 | 38.21207 | -5.31962 | 25602 ft | 410 kts | 30° |
| 2026-04-27 13:00 | 38.23670 | -5.30142 | 26051 ft | 409 kts | 30° |
| 2026-04-27 13:00 | 38.26124 | -5.28326 | 26558 ft | 408 kts | 30° |
| 2026-04-27 13:00 | 38.28582 | -5.26506 | 27009 ft | 408 kts | 30° |
| 2026-04-27 13:01 | 38.31026 | -5.24695 | 27493 ft | 407 kts | 30° |
| 2026-04-27 13:01 | 38.33470 | -5.22882 | 27982 ft | 406 kts | 30° |
| 2026-04-27 13:01 | 38.35909 | -5.21072 | 28434 ft | 405 kts | 30° |
| 2026-04-27 13:01 | 38.38346 | -5.19262 | 28877 ft | 405 kts | 30° |
| 2026-04-27 13:02 | 38.40777 | -5.17455 | 29312 ft | 405 kts | 30° |
| 2026-04-27 13:02 | 38.43208 | -5.15647 | 29784 ft | 404 kts | 30° |
| 2026-04-27 13:02 | 38.45642 | -5.13858 | 30190 ft | 404 kts | 28° |
| 2026-04-27 13:02 | 38.48181 | -5.12339 | 30560 ft | 403 kts | 21° |
| 2026-04-27 13:03 | 38.50844 | -5.11247 | 30936 ft | 401 kts | 13° |
| 2026-04-27 13:03 | 38.53586 | -5.10647 | 31304 ft | 400 kts | 4° |
| 2026-04-27 13:03 | 38.56354 | -5.10558 | 31696 ft | 397 kts | 357° |
| 2026-04-27 13:03 | 38.59107 | -5.10721 | 32077 ft | 396 kts | 355° |
| 2026-04-27 13:04 | 38.61854 | -5.10975 | 32433 ft | 395 kts | 354° |
| 2026-04-27 13:04 | 38.64585 | -5.11273 | 32785 ft | 394 kts | 353° |
| 2026-04-27 13:04 | 38.67320 | -5.11583 | 33117 ft | 393 kts | 353° |
| 2026-04-27 13:04 | 38.70046 | -5.11890 | 33467 ft | 393 kts | 353° |
| 2026-04-27 13:05 | 38.72768 | -5.12187 | 33799 ft | 392 kts | 354° |
| 2026-04-27 13:05 | 38.75491 | -5.12476 | 33998 ft | 393 kts | 354° |
| 2026-04-27 13:05 | 38.80990 | -5.13045 | 34012 ft | 399 kts | 354° |
| 2026-04-27 13:06 | 38.86528 | -5.13609 | 34009 ft | 399 kts | 354° |
| 2026-04-27 13:06 | 38.92072 | -5.14119 | 34010 ft | 400 kts | 358° |
| 2026-04-27 13:07 | 38.97557 | -5.12993 | 34010 ft | 402 kts | 19° |
| 2026-04-27 13:07 | 39.00079 | -5.11437 | 34010 ft | 403 kts | 32° |
| 2026-04-27 13:07 | 39.02295 | -5.09244 | 34015 ft | 403 kts | 44° |
| 2026-04-27 13:08 | 39.05667 | -5.03559 | 34013 ft | 403 kts | 57° |
| 2026-04-27 13:08 | 39.08628 | -4.97366 | 34013 ft | 404 kts | 59° |
| 2026-04-27 13:09 | 39.11518 | -4.91158 | 34013 ft | 404 kts | 59° |
| 2026-04-27 13:09 | 39.14419 | -4.85016 | 34018 ft | 404 kts | 58° |
| 2026-04-27 13:10 | 39.17407 | -4.78883 | 34017 ft | 404 kts | 53° |
| 2026-04-27 13:10 | 39.21445 | -4.73935 | 34017 ft | 402 kts | 31° |
| 2026-04-27 13:11 | 39.26461 | -4.70804 | 34035 ft | 401 kts | 21° |
| 2026-04-27 13:11 | 39.31639 | -4.68118 | 34028 ft | 401 kts | 20° |
| 2026-04-27 13:12 | 39.36831 | -4.65490 | 34027 ft | 401 kts | 20° |
| 2026-04-27 13:12 | 39.42013 | -4.62814 | 34029 ft | 401 kts | 20° |
| 2026-04-27 13:13 | 39.47185 | -4.60107 | 34027 ft | 401 kts | 20° |
| 2026-04-27 13:13 | 39.52351 | -4.57388 | 34025 ft | 401 kts | 20° |
| 2026-04-27 13:14 | 39.57510 | -4.54669 | 34036 ft | 400 kts | 20° |
| 2026-04-27 13:14 | 39.62662 | -4.51953 | 34020 ft | 399 kts | 20° |
| 2026-04-27 13:15 | 39.67805 | -4.49237 | 34038 ft | 399 kts | 20° |
| 2026-04-27 13:15 | 39.72955 | -4.46514 | 34031 ft | 399 kts | 20° |
| 2026-04-27 13:16 | 39.78100 | -4.43788 | 34034 ft | 399 kts | 20° |
| 2026-04-27 13:16 | 39.83235 | -4.41059 | 34040 ft | 399 kts | 20° |
| 2026-04-27 13:17 | 39.88374 | -4.38322 | 34059 ft | 399 kts | 20° |
| 2026-04-27 13:17 | 39.93521 | -4.35576 | 34057 ft | 399 kts | 20° |
| 2026-04-27 13:18 | 39.98642 | -4.32769 | 34049 ft | 400 kts | 21° |
| 2026-04-27 13:18 | 40.03678 | -4.29730 | 34045 ft | 401 kts | 23° |
| 2026-04-27 13:19 | 40.08723 | -4.26607 | 34048 ft | 401 kts | 23° |
| 2026-04-27 13:19 | 40.13773 | -4.23495 | 34058 ft | 401 kts | 22° |
| 2026-04-27 13:20 | 40.18835 | -4.20393 | 34060 ft | 402 kts | 22° |
| 2026-04-27 13:20 | 40.23900 | -4.17291 | 34061 ft | 402 kts | 22° |
| 2026-04-27 13:21 | 40.28966 | -4.14184 | 34059 ft | 402 kts | 22° |
| 2026-04-27 13:21 | 40.33214 | -4.11573 | 34067 ft | 402 kts | 22° |
| 2026-04-27 13:22 | 40.38280 | -4.08455 | 34068 ft | 402 kts | 22° |
| 2026-04-27 13:22 | 40.43350 | -4.05329 | 34084 ft | 403 kts | 22° |
| 2026-04-27 13:23 | 40.48419 | -4.02199 | 34086 ft | 403 kts | 22° |
| 2026-04-27 13:23 | 40.53492 | -3.99060 | 34104 ft | 403 kts | 22° |
| 2026-04-27 13:24 | 40.58568 | -3.95914 | 34118 ft | 403 kts | 22° |
| 2026-04-27 13:24 | 40.63642 | -3.92765 | 34120 ft | 403 kts | 22° |
| 2026-04-27 13:25 | 40.68712 | -3.89613 | 34128 ft | 403 kts | 22° |
| 2026-04-27 13:25 | 40.73753 | -3.86473 | 34128 ft | 403 kts | 22° |
| 2026-04-27 13:26 | 40.78864 | -3.83284 | 34092 ft | 403 kts | 22° |
| 2026-04-27 13:26 | 40.83930 | -3.80118 | 34085 ft | 402 kts | 22° |
| 2026-04-27 13:27 | 40.88975 | -3.76960 | 34089 ft | 401 kts | 22° |
| 2026-04-27 13:27 | 40.94022 | -3.73795 | 34094 ft | 401 kts | 22° |
| 2026-04-27 13:28 | 40.99066 | -3.70627 | 34094 ft | 401 kts | 22° |
| 2026-04-27 13:28 | 41.04113 | -3.67451 | 34095 ft | 401 kts | 22° |
| 2026-04-27 13:29 | 41.09154 | -3.64274 | 34093 ft | 401 kts | 22° |
| 2026-04-27 13:29 | 41.14186 | -3.61056 | 34090 ft | 402 kts | 26° |
| 2026-04-27 13:30 | 41.18883 | -3.56969 | 34092 ft | 404 kts | 32° |
| 2026-04-27 13:30 | 41.23461 | -3.52639 | 34090 ft | 405 kts | 33° |
| 2026-04-27 13:31 | 41.28033 | -3.48234 | 34082 ft | 405 kts | 33° |
| 2026-04-27 13:31 | 41.32596 | -3.43842 | 34084 ft | 405 kts | 33° |
| 2026-04-27 13:32 | 41.37153 | -3.39466 | 34086 ft | 403 kts | 33° |
| 2026-04-27 13:32 | 41.41703 | -3.35096 | 34083 ft | 403 kts | 33° |
| 2026-04-27 13:33 | 41.46244 | -3.30727 | 34083 ft | 403 kts | 33° |
| 2026-04-27 13:33 | 41.50790 | -3.26346 | 34083 ft | 403 kts | 33° |
| 2026-04-27 13:34 | 41.55333 | -3.21963 | 34081 ft | 404 kts | 33° |
| 2026-04-27 13:34 | 41.59886 | -3.17563 | 34081 ft | 404 kts | 33° |
| 2026-04-27 13:35 | 41.64437 | -3.13159 | 34082 ft | 404 kts | 33° |
| 2026-04-27 13:35 | 41.68996 | -3.08736 | 34088 ft | 404 kts | 33° |
| 2026-04-27 13:36 | 41.73549 | -3.04313 | 34088 ft | 404 kts | 34° |
| 2026-04-27 13:36 | 41.78097 | -2.99883 | 34093 ft | 404 kts | 34° |
| 2026-04-27 13:37 | 41.82643 | -2.95445 | 34103 ft | 404 kts | 34° |
| 2026-04-27 13:37 | 41.87188 | -2.90998 | 34103 ft | 404 kts | 34° |
| 2026-04-27 13:38 | 41.91730 | -2.86548 | 34108 ft | 404 kts | 34° |
| 2026-04-27 13:38 | 41.96271 | -2.82092 | 34113 ft | 404 kts | 34° |
| 2026-04-27 13:39 | 42.00809 | -2.77631 | 34117 ft | 404 kts | 34° |
| 2026-04-27 13:39 | 42.05340 | -2.73168 | 34120 ft | 403 kts | 34° |
| 2026-04-27 13:40 | 42.09864 | -2.68703 | 34126 ft | 403 kts | 34° |
| 2026-04-27 13:40 | 42.14382 | -2.64236 | 34125 ft | 403 kts | 34° |
| 2026-04-27 13:41 | 42.18896 | -2.59767 | 34118 ft | 403 kts | 35° |
| 2026-04-27 13:41 | 42.23430 | -2.55269 | 34107 ft | 405 kts | 35° |
| 2026-04-27 13:42 | 42.27962 | -2.50766 | 34110 ft | 405 kts | 35° |
| 2026-04-27 13:42 | 42.32497 | -2.46250 | 34107 ft | 405 kts | 35° |
| 2026-04-27 13:43 | 42.37032 | -2.41727 | 34101 ft | 405 kts | 36° |
| 2026-04-27 13:43 | 42.41564 | -2.37196 | 34105 ft | 407 kts | 37° |
| 2026-04-27 13:44 | 42.45419 | -2.31625 | 34100 ft | 407 kts | 59° |
| 2026-04-27 13:44 | 42.46661 | -2.28197 | 34101 ft | 406 kts | 71° |
| 2026-04-27 13:44 | 42.47482 | -2.24548 | 34105 ft | 406 kts | 75° |
| 2026-04-27 13:45 | 42.48784 | -2.17104 | 34102 ft | 406 kts | 78° |
| 2026-04-27 13:45 | 42.49955 | -2.09610 | 34092 ft | 406 kts | 79° |
| 2026-04-27 13:46 | 42.51145 | -2.02124 | 34090 ft | 406 kts | 78° |
| 2026-04-27 13:46 | 42.52363 | -1.94646 | 34088 ft | 406 kts | 78° |
| 2026-04-27 13:47 | 42.53589 | -1.87166 | 34084 ft | 406 kts | 78° |
| 2026-04-27 13:47 | 42.54807 | -1.79710 | 34091 ft | 405 kts | 78° |
| 2026-04-27 13:48 | 42.56020 | -1.72236 | 34093 ft | 405 kts | 78° |
| 2026-04-27 13:48 | 42.57224 | -1.64777 | 34090 ft | 405 kts | 78° |
| 2026-04-27 13:49 | 42.58426 | -1.57305 | 34094 ft | 405 kts | 78° |
| 2026-04-27 13:49 | 42.59623 | -1.49825 | 34096 ft | 405 kts | 78° |
| 2026-04-27 13:50 | 42.60814 | -1.42358 | 34099 ft | 405 kts | 78° |
| 2026-04-27 13:50 | 42.62000 | -1.34882 | 34092 ft | 406 kts | 78° |
| 2026-04-27 13:51 | 42.63184 | -1.27387 | 34098 ft | 406 kts | 78° |
| 2026-04-27 13:51 | 42.64365 | -1.19877 | 34097 ft | 406 kts | 78° |
| 2026-04-27 13:52 | 42.65540 | -1.12373 | 34094 ft | 405 kts | 78° |
| 2026-04-27 13:52 | 42.66704 | -1.04905 | 34106 ft | 403 kts | 78° |
| 2026-04-27 13:53 | 42.68439 | -0.93715 | 34101 ft | 403 kts | 78° |
| 2026-04-27 13:54 | 42.69589 | -0.86254 | 34118 ft | 403 kts | 78° |
| 2026-04-27 13:54 | 42.70733 | -0.78793 | 34123 ft | 403 kts | 78° |
| 2026-04-27 13:55 | 42.71871 | -0.71343 | 34126 ft | 402 kts | 78° |
| 2026-04-27 13:55 | 42.73000 | -0.63916 | 34130 ft | 401 kts | 78° |
| 2026-04-27 13:56 | 42.74124 | -0.56496 | 34136 ft | 400 kts | 78° |
| 2026-04-27 13:56 | 42.75234 | -0.49124 | 34135 ft | 401 kts | 78° |
| 2026-04-27 13:57 | 42.76347 | -0.41698 | 34136 ft | 401 kts | 78° |
| 2026-04-27 13:57 | 42.77456 | -0.34272 | 34136 ft | 400 kts | 78° |
| 2026-04-27 13:57 | 42.78015 | -0.30510 | 33999 ft | 398 kts | 78° |
| 2026-04-27 13:58 | 42.78559 | -0.26843 | 33721 ft | 394 kts | 78° |
| 2026-04-27 13:58 | 42.79094 | -0.23236 | 33454 ft | 394 kts | 78° |
| 2026-04-27 13:58 | 42.79855 | -0.19659 | 33192 ft | 394 kts | 65° |
| 2026-04-27 13:58 | 42.81246 | -0.16460 | 32932 ft | 393 kts | 54° |
| 2026-04-27 13:59 | 42.82868 | -0.13464 | 32659 ft | 394 kts | 52° |
| 2026-04-27 13:59 | 42.84533 | -0.10487 | 32389 ft | 394 kts | 52° |
| 2026-04-27 13:59 | 42.86178 | -0.07545 | 31966 ft | 388 kts | 52° |
| 2026-04-27 13:59 | 42.87806 | -0.04617 | 31417 ft | 386 kts | 52° |
| 2026-04-27 14:00 | 42.89420 | -0.01702 | 30833 ft | 385 kts | 52° |
| 2026-04-27 14:00 | 42.91035 | 0.01221 | 30258 ft | 385 kts | 53° |
| 2026-04-27 14:00 | 42.92122 | 0.03195 | 29801 ft | 385 kts | 53° |
| 2026-04-27 14:00 | 42.94247 | 0.07058 | 28964 ft | 383 kts | 53° |
| 2026-04-27 14:01 | 42.95839 | 0.09957 | 28353 ft | 381 kts | 53° |
| 2026-04-27 14:01 | 42.96913 | 0.11914 | 27918 ft | 380 kts | 53° |
| 2026-04-27 14:01 | 42.98492 | 0.14794 | 27266 ft | 380 kts | 53° |
| 2026-04-27 14:01 | 43.00078 | 0.17689 | 26618 ft | 381 kts | 53° |
| 2026-04-27 14:02 | 43.01666 | 0.20591 | 25944 ft | 382 kts | 53° |
| 2026-04-27 14:02 | 43.03261 | 0.23508 | 25230 ft | 384 kts | 53° |
| 2026-04-27 14:02 | 43.04862 | 0.26441 | 24526 ft | 386 kts | 53° |
| 2026-04-27 14:02 | 43.06473 | 0.29393 | 23781 ft | 388 kts | 53° |
| 2026-04-27 14:03 | 43.08090 | 0.32361 | 23042 ft | 387 kts | 53° |
| 2026-04-27 14:03 | 43.09675 | 0.35273 | 22612 ft | 379 kts | 53° |
| 2026-04-27 14:03 | 43.11245 | 0.38162 | 22081 ft | 378 kts | 53° |
| 2026-04-27 14:03 | 43.12791 | 0.41007 | 21606 ft | 376 kts | 53° |
| 2026-04-27 14:04 | 43.14368 | 0.43912 | 21105 ft | 373 kts | 53° |
| 2026-04-27 14:04 | 43.15907 | 0.46751 | 20601 ft | 371 kts | 53° |
| 2026-04-27 14:04 | 43.17437 | 0.49576 | 20096 ft | 367 kts | 53° |
| 2026-04-27 14:04 | 43.18951 | 0.52372 | 19595 ft | 364 kts | 53° |
| 2026-04-27 14:05 | 43.20455 | 0.55151 | 19107 ft | 361 kts | 53° |
| 2026-04-27 14:05 | 43.21946 | 0.57911 | 18612 ft | 359 kts | 53° |
| 2026-04-27 14:05 | 43.23425 | 0.60652 | 18079 ft | 356 kts | 53° |
| 2026-04-27 14:05 | 43.24894 | 0.63377 | 17558 ft | 354 kts | 53° |
| 2026-04-27 14:06 | 43.26353 | 0.66084 | 17085 ft | 352 kts | 53° |
| 2026-04-27 14:06 | 43.27800 | 0.68774 | 16590 ft | 349 kts | 53° |
| 2026-04-27 14:06 | 43.29235 | 0.71445 | 16102 ft | 346 kts | 54° |
| 2026-04-27 14:06 | 43.30456 | 0.74276 | 15630 ft | 343 kts | 68° |
| 2026-04-27 14:07 | 43.31000 | 0.77429 | 15147 ft | 339 kts | 87° |
| 2026-04-27 14:07 | 43.30995 | 0.80610 | 14679 ft | 337 kts | 93° |
| 2026-04-27 14:07 | 43.30865 | 0.83809 | 14221 ft | 335 kts | 94° |
| 2026-04-27 14:07 | 43.30723 | 0.86984 | 13712 ft | 333 kts | 94° |
| 2026-04-27 14:08 | 43.30587 | 0.90151 | 13213 ft | 330 kts | 94° |
| 2026-04-27 14:08 | 43.30457 | 0.93281 | 12754 ft | 328 kts | 94° |
| 2026-04-27 14:08 | 43.30330 | 0.96395 | 12284 ft | 325 kts | 94° |
| 2026-04-27 14:08 | 43.30207 | 0.99481 | 11825 ft | 322 kts | 94° |
| 2026-04-27 14:09 | 43.30085 | 1.02538 | 11355 ft | 320 kts | 94° |
| 2026-04-27 14:09 | 43.29964 | 1.05577 | 10883 ft | 318 kts | 93° |
| 2026-04-27 14:09 | 43.29842 | 1.08597 | 10423 ft | 316 kts | 93° |
| 2026-04-27 14:09 | 43.29724 | 1.11532 | 10253 ft | 298 kts | 93° |
| 2026-04-27 14:10 | 43.29612 | 1.14289 | 10181 ft | 281 kts | 93° |
| 2026-04-27 14:10 | 43.29507 | 1.16918 | 10053 ft | 276 kts | 92° |
| 2026-04-27 14:10 | 43.29644 | 1.19561 | 9631 ft | 278 kts | 75° |
| 2026-04-27 14:10 | 43.30454 | 1.21927 | 9251 ft | 273 kts | 51° |
| 2026-04-27 14:11 | 43.31864 | 1.23609 | 8879 ft | 269 kts | 27° |
| 2026-04-27 14:11 | 43.33612 | 1.24419 | 8437 ft | 264 kts | 9° |
| 2026-04-27 14:11 | 43.35412 | 1.24915 | 8086 ft | 267 kts | 14° |
| 2026-04-27 14:11 | 43.37075 | 1.26033 | 7703 ft | 267 kts | 37° |
| 2026-04-27 14:12 | 43.38223 | 1.27997 | 7342 ft | 266 kts | 63° |
| 2026-04-27 14:12 | 43.38691 | 1.30445 | 6990 ft | 264 kts | 82° |
| 2026-04-27 14:12 | 43.38845 | 1.32953 | 6639 ft | 263 kts | 85° |
| 2026-04-27 14:12 | 43.38951 | 1.35456 | 6269 ft | 262 kts | 86° |
| 2026-04-27 14:13 | 43.39055 | 1.37912 | 6047 ft | 252 kts | 85° |
| 2026-04-27 14:13 | 43.39161 | 1.40249 | 5894 ft | 238 kts | 84° |
| 2026-04-27 14:13 | 43.39263 | 1.42454 | 5722 ft | 224 kts | 85° |
| 2026-04-27 14:13 | 43.39395 | 1.44563 | 5306 ft | 223 kts | 79° |
| 2026-04-27 14:14 | 43.39858 | 1.46590 | 4897 ft | 224 kts | 60° |
| 2026-04-27 14:14 | 43.40823 | 1.48243 | 4498 ft | 221 kts | 37° |
| 2026-04-27 14:14 | 43.42112 | 1.49407 | 4064 ft | 221 kts | 28° |
| 2026-04-27 14:14 | 43.43467 | 1.50398 | 3770 ft | 221 kts | 26° |
| 2026-04-27 14:15 | 43.44836 | 1.51372 | 3432 ft | 221 kts | 25° |
| 2026-04-27 14:15 | 43.46271 | 1.52064 | 3093 ft | 217 kts | 4° |
| 2026-04-27 14:15 | 43.47703 | 1.51740 | 2987 ft | 203 kts | 338° |
| 2026-04-27 14:15 | 43.48871 | 1.50794 | 2996 ft | 191 kts | 323° |
| 2026-04-27 14:16 | 43.49888 | 1.49676 | 3003 ft | 181 kts | 323° |
| 2026-04-27 14:16 | 43.50857 | 1.48658 | 2997 ft | 168 kts | 323° |
| 2026-04-27 14:16 | 43.51730 | 1.47747 | 2965 ft | 149 kts | 323° |
| 2026-04-27 14:16 | 43.52535 | 1.46912 | 2810 ft | 142 kts | 324° |
| 2026-04-27 14:17 | 43.53318 | 1.46103 | 2600 ft | 140 kts | 323° |
| 2026-04-27 14:17 | 43.54109 | 1.45290 | 2408 ft | 143 kts | 323° |
| 2026-04-27 14:17 | 43.54900 | 1.44466 | 2227 ft | 143 kts | 323° |
| 2026-04-27 14:17 | 43.55679 | 1.43657 | 2041 ft | 135 kts | 323° |
| 2026-04-27 14:18 | 43.56403 | 1.42907 | 1858 ft | 127 kts | 324° |
| 2026-04-27 14:18 | 43.57108 | 1.42181 | 1692 ft | 126 kts | 324° |
| 2026-04-27 14:18 | 43.57818 | 1.41443 | 1520 ft | 127 kts | 323° |
| 2026-04-27 14:18 | 43.58512 | 1.40723 | 1354 ft | 125 kts | 324° |
| 2026-04-27 14:19 | 43.59209 | 1.39999 | 1192 ft | 125 kts | 323° |
| 2026-04-27 14:19 | 43.59904 | 1.39278 | 1025 ft | 126 kts | 323° |
| 2026-04-27 14:19 | 43.60598 | 1.38555 | 859 ft | 125 kts | 323° |
| 2026-04-27 14:19 | 43.61293 | 1.37833 | 693 ft | 124 kts | 326° |
| 2026-04-27 14:20 | 43.61979 | 1.37112 | 541 ft | 124 kts | 325° |
| 2026-04-27 14:20 | 43.62611 | 1.36462 | 489 ft | 92 kts | 322° |
| 2026-04-27 14:20 | 43.62959 | 1.36106 | 487 ft | 32 kts | 324° |
| 2026-04-27 14:20 | 43.63074 | 1.35978 | 490 ft | 12 kts | 306° |
| 2026-04-27 14:21 | 43.63057 | 1.35873 | 487 ft | 13 kts | 233° |
| 2026-04-27 14:21 | 43.62998 | 1.35791 | 489 ft | 5 kts | 197° |
| 2026-04-27 14:21 | 43.62956 | 1.35802 | 487 ft | 8 kts | 154° |
| 2026-04-27 14:21 | 43.62902 | 1.35852 | 488 ft | 11 kts | 144° |
| 2026-04-27 14:22 | 43.62831 | 1.35926 | 487 ft | 15 kts | 142° |
| 2026-04-27 14:22 | 43.62740 | 1.36021 | 489 ft | 18 kts | 142° |
| 2026-04-27 14:22 | 43.62641 | 1.36090 | 491 ft | 8 kts | 184° |
| 2026-04-27 14:22 | 43.62592 | 1.36043 | 490 ft | 9 kts | 233° |
| 2026-04-27 14:23 | 43.62545 | 1.35956 | 488 ft | 13 kts | 233° |
| 2026-04-27 14:23 | 43.62487 | 1.35849 | 492 ft | 2 kts | 233° |
| 2026-04-27 14:23 | 43.62474 | 1.35827 | 489 ft | 5 kts | 233° |
| 2026-04-27 14:23 | 43.62470 | 1.35800 | 487 ft | 2 kts | 282° |
| 2026-04-27 14:24 | 43.62482 | 1.35785 | 489 ft | 3 kts | 323° |
| 2026-04-27 14:24 | 43.62509 | 1.35758 | 490 ft | 7 kts | 323° |
| 2026-04-27 14:24 | 43.62515 | 1.35751 | 490 ft | 0 kts | 323° |